Time;durP1;ratioP1;P1;durP2;ratioP2;P2;SDS_P1;SDS_P2;PMS_P1;PMS_P2;Temp;Humidity;BMP_temperature;BMP_pressure;BME280_temperature;BME280_humidity;BME280_pressure;Samples;Min_cycle;Max_cycle;Signal;HPM_P1;HPM_P2
2022/07/13 00:01:55;;;;;;;6.60;4.30;;;;;;;22.43;63.54;101948.56;4953338;29;20038;-74
2022/07/13 00:04:21;;;;;;;7.07;4.80;;;;;;;22.40;62.75;101947.16;4954948;29;20348;-69
2022/07/13 00:06:46;;;;;;;10.10;4.90;;;;;;;22.39;62.68;101944.69;4955547;29;20271;-74
2022/07/13 00:09:11;;;;;;;7.93;4.80;;;;;;;22.38;63.29;101940.28;4954865;29;20456;-74
2022/07/13 00:11:37;;;;;;;8.55;4.80;;;;;;;22.39;62.79;101929.00;4955779;28;20107;-72
2022/07/13 00:14:02;;;;;;;10.35;5.00;;;;;;;22.39;62.68;101915.19;4954412;29;20575;-74
2022/07/13 00:16:27;;;;;;;11.95;4.90;;;;;;;22.35;62.98;101908.59;4954444;29;20027;-74
2022/07/13 00:18:53;;;;;;;6.47;4.82;;;;;;;22.38;61.28;101912.72;4954016;29;20090;-76
2022/07/13 00:21:18;;;;;;;7.35;4.75;;;;;;;22.35;61.01;101914.09;4955699;29;20374;-75
2022/07/13 00:23:43;;;;;;;12.30;4.85;;;;;;;22.34;61.21;101906.91;4956459;28;20027;-71
2022/07/13 00:26:09;;;;;;;6.82;4.35;;;;;;;22.29;61.66;101899.47;4936411;29;20040;-73
2022/07/13 00:28:34;;;;;;;7.63;4.22;;;;;;;22.32;60.19;101898.13;4938714;29;20043;-72
2022/07/13 00:31:00;;;;;;;6.65;4.10;;;;;;;22.32;60.71;101903.63;4955207;28;20466;-74
2022/07/13 00:33:25;;;;;;;6.65;4.30;;;;;;;22.27;61.34;101903.63;4954971;28;20122;-72
2022/07/13 00:35:50;;;;;;;6.82;4.10;;;;;;;22.29;60.49;101898.63;4954297;28;20126;-73
2022/07/13 00:38:16;;;;;;;8.52;4.43;;;;;;;22.28;60.39;101896.97;4953842;28;20031;-73
2022/07/13 00:40:41;;;;;;;5.45;4.10;;;;;;;22.31;60.40;101879.91;4955092;29;20027;-75
2022/07/13 00:43:06;;;;;;;6.82;4.07;;;;;;;22.25;60.42;101878.25;4953385;28;20055;-74
2022/07/13 00:45:32;;;;;;;5.45;4.18;;;;;;;22.22;60.63;101871.38;4954252;28;20038;-75
2022/07/13 00:47:58;;;;;;;5.05;3.83;;;;;;;22.26;59.93;101866.94;4954628;28;20526;-76
2022/07/13 00:50:23;;;;;;;8.93;3.88;;;;;;;22.24;60.21;101860.88;4948953;28;20028;-73
2022/07/13 00:52:50;;;;;;;4.20;3.80;;;;;;;22.24;61.77;101871.09;4935645;29;20039;-72
2022/07/13 00:55:15;;;;;;;7.28;3.95;;;;;;;22.22;61.50;101868.63;4965204;28;20023;-71
2022/07/13 00:57:41;;;;;;;6.68;3.90;;;;;;;22.26;59.96;101866.13;4955345;28;20042;-70
2022/07/13 01:00:12;;;;;;;5.05;3.90;;;;;;;22.22;61.51;101865.00;4954440;29;20483;-73
2022/07/13 01:02:38;;;;;;;;;;;;;;;22.35;60.79;101866.41;4952983;28;20034;-73
2022/07/13 01:05:03;;;;;;;4.97;3.58;;;;;;;22.24;61.29;101857.31;4953260;29;19914;-73
2022/07/13 01:07:32;;;;;;;6.70;3.67;;;;;;;22.24;60.58;101862.81;4938806;28;20224;-71
2022/07/13 01:10:05;;;;;;;7.15;3.60;;;;;;;22.21;60.50;101855.06;4935324;29;20057;-74
2022/07/13 01:12:31;;;;;;;3.65;3.33;;;;;;;22.18;60.95;101863.91;4934343;29;20035;-72
2022/07/13 01:14:57;;;;;;;7.75;3.70;;;;;;;22.17;60.92;101860.34;4947754;29;20411;-73
2022/07/13 01:17:23;;;;;;;6.93;3.97;;;;;;;22.19;58.70;101860.06;4954106;29;20109;-74
2022/07/13 01:19:49;;;;;;;6.00;3.55;;;;;;;22.17;60.48;101856.75;4954561;28;20106;-71
2022/07/13 01:22:21;;;;;;;5.72;3.63;;;;;;;22.17;61.02;101856.75;4954368;28;20028;-73
2022/07/13 01:24:47;;;;;;;7.82;3.55;;;;;;;22.14;59.68;101847.13;4953555;28;20038;-73
2022/07/13 01:27:13;;;;;;;4.05;3.05;;;;;;;22.17;59.34;101846.56;4952410;29;20034;-72
2022/07/13 01:29:39;;;;;;;4.22;3.28;;;;;;;22.17;58.31;101851.25;4954627;28;20027;-72
2022/07/13 01:32:05;;;;;;;4.80;3.15;;;;;;;22.12;57.99;101844.63;4954247;28;20090;-75
2022/07/13 01:34:30;;;;;;;6.20;3.30;;;;;;;22.13;58.75;101845.44;4961028;28;20035;-75
2022/07/13 01:36:57;;;;;;;4.55;3.30;;;;;;;22.17;56.90;101851.25;4961248;28;20027;-73
2022/07/13 01:39:22;;;;;;;9.10;3.47;;;;;;;22.16;56.45;101852.34;4954493;28;20118;-74
2022/07/13 01:41:47;;;;;;;7.28;3.10;;;;;;;22.19;57.43;101843.50;4954565;29;20115;-72
2022/07/13 01:44:14;;;;;;;5.38;3.30;;;;;;;22.16;57.37;101833.03;4953521;28;20403;-73
2022/07/13 01:46:39;;;;;;;7.38;3.03;;;;;;;22.15;58.35;101840.50;4945924;28;20034;-75
2022/07/13 01:49:04;;;;;;;5.68;3.08;;;;;;;22.17;56.34;101841.03;4949462;29;20023;-72
2022/07/13 01:51:29;;;;;;;5.68;3.28;;;;;;;22.10;57.13;101843.25;4953192;29;20095;-75
2022/07/13 01:53:55;;;;;;;7.22;3.40;;;;;;;22.12;56.25;101843.81;4948792;29;20032;-72
2022/07/13 01:56:21;;;;;;;6.45;3.35;;;;;;;22.09;59.00;101844.38;4940411;29;20050;-72
2022/07/13 01:58:46;;;;;;;6.15;3.40;;;;;;;22.09;58.10;101845.19;4954339;29;20468;-73
2022/07/13 02:01:11;;;;;;;9.07;3.30;;;;;;;22.06;57.28;101847.69;4952710;28;20027;-72
2022/07/13 02:03:37;;;;;;;8.95;3.28;;;;;;;22.05;56.58;101841.34;4955693;29;20130;-74
2022/07/13 02:06:03;;;;;;;7.18;2.97;;;;;;;22.00;57.87;101840.53;4955796;29;20031;-75
2022/07/13 02:08:28;;;;;;;6.95;3.30;;;;;;;22.03;56.62;101831.72;4958108;28;20026;-74
2022/07/13 02:10:54;;;;;;;6.90;3.15;;;;;;;22.01;57.40;101836.66;4957800;29;20378;-71
2022/07/13 02:13:21;;;;;;;6.10;3.40;;;;;;;21.96;57.85;101823.72;4958069;28;20035;-74
2022/07/13 02:15:46;;;;;;;6.75;3.38;;;;;;;21.98;57.61;101821.50;4955346;28;20118;-74
2022/07/13 02:18:12;;;;;;;5.53;3.05;;;;;;;21.98;58.76;101817.94;4937837;29;20426;-71
2022/07/13 02:20:37;;;;;;;7.57;3.28;;;;;;;21.95;58.20;101816.53;4969552;28;20197;-76
2022/07/13 02:23:02;;;;;;;7.03;3.08;;;;;;;21.93;56.93;101808.56;4941390;29;20028;-73
2022/07/13 02:25:28;;;;;;;8.50;3.00;;;;;;;21.98;56.75;101816.00;4953737;29;20027;-74
2022/07/13 02:27:53;;;;;;;5.28;3.47;;;;;;;21.96;56.72;101807.19;4943073;28;20042;-72
2022/07/13 02:30:19;;;;;;;7.20;3.55;;;;;;;21.98;56.90;101809.66;4937906;29;20482;-71
2022/07/13 02:32:45;;;;;;;5.18;3.20;;;;;;;21.99;56.73;101805.81;4937456;29;20103;-73
2022/07/13 02:35:12;;;;;;;6.07;3.20;;;;;;;21.92;57.54;101804.16;4941542;29;20109;-73
2022/07/13 02:37:37;;;;;;;6.90;3.30;;;;;;;21.92;57.52;101798.66;4941692;28;20028;-71
2022/07/13 02:40:04;;;;;;;6.10;3.28;;;;;;;21.92;58.11;101806.09;4938036;29;20507;-70
2022/07/13 02:42:29;;;;;;;4.70;3.33;;;;;;;21.91;57.20;101801.69;4938295;29;20027;-72
2022/07/13 02:44:55;;;;;;;6.10;3.17;;;;;;;21.89;58.41;101809.41;4947100;28;20023;-70
2022/07/13 02:47:20;;;;;;;7.65;3.30;;;;;;;21.88;57.50;101794.00;4944398;28;20086;-72
2022/07/13 02:49:46;;;;;;;9.35;3.42;;;;;;;21.84;58.15;101781.88;4937956;29;20038;-71
2022/07/13 02:52:11;;;;;;;11.23;3.78;;;;;;;21.84;57.73;101782.69;4940356;29;20035;-74
2022/07/13 02:54:37;;;;;;;8.18;3.00;;;;;;;21.86;57.51;101787.91;4945859;28;20019;-71
2022/07/13 02:57:02;;;;;;;8.00;3.20;;;;;;;21.88;57.40;101800.31;4952149;28;20027;-71
2022/07/13 02:59:32;;;;;;;9.45;3.83;;;;;;;21.86;58.05;101793.41;4953912;29;20041;-74
2022/07/13 03:01:58;;;;;;;6.93;3.40;;;;;;;21.86;58.80;101797.03;4943496;28;20593;-72
2022/07/13 03:04:23;;;;;;;3.95;3.00;;;;;;;21.89;58.24;101795.63;4956926;28;20023;-69
2022/07/13 03:06:48;;;;;;;7.88;2.95;;;;;;;21.83;59.46;101785.72;4956219;28;20031;-72
2022/07/13 03:09:14;;;;;;;9.63;3.55;;;;;;;21.87;59.45;101800.59;4956592;29;20363;-72
2022/07/13 03:11:39;;;;;;;6.32;2.95;;;;;;;21.83;59.08;101799.50;4945909;29;20079;-75
2022/07/13 03:14:04;;;;;;;4.40;3.20;;;;;;;21.84;57.97;101790.94;4950799;28;20463;-70
2022/07/13 03:16:29;;;;;;;6.25;3.05;;;;;;;21.84;57.43;101790.94;4941867;29;20089;-68
2022/07/13 03:18:55;;;;;;;4.07;3.40;;;;;;;21.86;57.77;101793.41;4956484;28;20043;-70
2022/07/13 03:21:20;;;;;;;4.77;2.83;;;;;;;21.83;58.78;101788.47;4951841;29;20087;-69
2022/07/13 03:23:45;;;;;;;8.05;3.03;;;;;;;21.85;57.79;101794.53;4937075;29;20287;-69
2022/07/13 03:26:11;;;;;;;5.43;3.10;;;;;;;21.84;57.53;101792.88;4939200;29;20046;-70
2022/07/13 03:28:36;;;;;;;8.63;3.05;;;;;;;21.80;58.33;101792.63;4955851;29;20041;-70
2022/07/13 03:31:01;;;;;;;5.40;3.03;;;;;;;21.83;57.50;101786.56;4955970;28;20063;-70
2022/07/13 03:33:27;;;;;;;9.80;3.17;;;;;;;21.84;57.73;101787.38;4942942;28;20043;-69
2022/07/13 03:35:52;;;;;;;6.93;2.88;;;;;;;21.84;57.85;101790.13;4937728;29;20090;-69
2022/07/13 03:38:17;;;;;;;7.80;3.40;;;;;;;21.81;57.62;101779.66;4937330;28;20404;-70
2022/07/13 03:40:43;;;;;;;3.88;2.97;;;;;;;21.80;57.46;101775.25;4937151;29;20071;-70
2022/07/13 03:43:08;;;;;;;5.93;3.00;;;;;;;21.81;57.60;101777.72;4936207;29;20067;-69
2022/07/13 03:45:33;;;;;;;5.32;3.40;;;;;;;21.82;57.73;101784.09;4937455;29;20260;-69
2022/07/13 03:47:58;;;;;;;4.35;3.22;;;;;;;21.79;57.64;101776.38;4935768;29;20028;-70
2022/07/13 03:50:24;;;;;;;11.27;3.53;;;;;;;21.81;57.43;101776.91;4936790;29;20034;-69
2022/07/13 03:52:49;;;;;;;6.35;3.10;;;;;;;21.80;57.55;101775.25;4936155;29;20083;-69
2022/07/13 03:55:14;;;;;;;5.50;3.67;;;;;;;21.76;58.01;101777.75;4936669;29;20024;-69
2022/07/13 03:57:40;;;;;;;5.80;3.30;;;;;;;21.76;57.58;101773.06;4947687;29;20031;-70
2022/07/13 04:00:07;;;;;;;8.30;3.40;;;;;;;21.76;57.70;101775.00;4955806;28;20031;-69
2022/07/13 04:02:32;;;;;;;4.10;3.35;;;;;;;21.73;57.85;101768.09;4946000;28;20043;-69
2022/07/13 04:04:57;;;;;;;4.72;3.55;;;;;;;21.74;57.86;101777.19;4936807;29;20031;-70
2022/07/13 04:07:22;;;;;;;5.57;2.97;;;;;;;21.73;58.33;101775.56;4946290;29;20374;-69
2022/07/13 04:09:48;;;;;;;6.53;3.63;;;;;;;21.69;58.19;101780.78;4956091;28;20035;-69
2022/07/13 04:12:13;;;;;;;12.15;3.58;;;;;;;21.70;58.07;101779.69;4952690;28;20529;-70
2022/07/13 04:14:38;;;;;;;7.55;3.30;;;;;;;21.67;58.08;101773.91;4936494;29;20035;-69
2022/07/13 04:17:04;;;;;;;12.25;3.55;;;;;;;21.69;58.43;101771.69;4943269;29;20507;-69
2022/07/13 04:19:29;;;;;;;6.75;3.40;;;;;;;21.68;58.49;101773.63;4955496;28;20047;-69
2022/07/13 04:21:54;;;;;;;9.20;3.47;;;;;;;21.63;58.54;101765.34;4953209;29;20073;-70
2022/07/13 04:24:19;;;;;;;9.18;3.40;;;;;;;21.63;58.71;101768.13;4935949;29;20444;-69
2022/07/13 04:26:45;;;;;;;9.57;3.55;;;;;;;21.61;58.98;101767.56;4941203;29;20023;-69
2022/07/13 04:29:10;;;;;;;10.05;3.67;;;;;;;21.59;59.37;101759.59;4954119;29;20195;-70
2022/07/13 04:31:35;;;;;;;9.40;3.80;;;;;;;21.59;58.85;101751.34;4955408;28;20514;-69
2022/07/13 04:34:00;;;;;;;10.82;3.25;;;;;;;21.62;58.72;101755.47;4948484;29;20085;-69
2022/07/13 04:36:26;;;;;;;8.35;3.85;;;;;;;21.60;58.99;101749.38;4938208;29;20063;-69
2022/07/13 04:38:52;;;;;;;14.85;4.15;;;;;;;21.62;58.75;101747.19;4955022;28;20027;-69
2022/07/13 04:41:17;;;;;;;9.45;3.40;;;;;;;21.62;58.72;101758.22;4936887;28;20027;-69
2022/07/13 04:43:45;;;;;;;6.90;3.75;;;;;;;21.62;58.70;101752.72;4937090;29;20427;-70
2022/07/13 04:46:11;;;;;;;10.88;3.70;;;;;;;21.63;58.80;101757.09;4934685;29;20102;-70
2022/07/13 04:48:37;;;;;;;9.23;3.75;;;;;;;21.64;58.75;101761.50;4936019;29;20034;-70
2022/07/13 04:51:02;;;;;;;7.63;3.53;;;;;;;21.59;59.08;101750.50;4934426;29;20031;-70
2022/07/13 04:53:27;;;;;;;9.55;3.55;;;;;;;21.61;59.57;101756.56;4934882;29;20038;-70
2022/07/13 04:55:52;;;;;;;6.53;3.10;;;;;;;21.63;58.89;101759.84;4935832;29;20132;-70
2022/07/13 04:58:18;;;;;;;4.65;3.60;;;;;;;21.64;58.52;101758.75;4945641;29;20366;-70
2022/07/13 05:00:43;;;;;;;7.80;3.25;;;;;;;21.64;59.11;101756.00;4952337;28;20023;-70
2022/07/13 05:03:08;;;;;;;6.72;3.35;;;;;;;21.66;58.62;101752.97;4944610;28;20027;-70
2022/07/13 05:05:33;;;;;;;8.30;3.17;;;;;;;21.67;58.70;101749.13;4935703;29;20026;-70
2022/07/13 05:07:59;;;;;;;7.43;2.95;;;;;;;21.68;59.08;101748.00;4934738;29;20279;-70
2022/07/13 05:10:25;;;;;;;6.53;3.10;;;;;;;21.69;58.96;101747.72;4935466;29;20019;-70
2022/07/13 05:12:50;;;;;;;5.82;3.00;;;;;;;21.70;58.26;101752.13;4947069;29;20027;-70
2022/07/13 05:15:15;;;;;;;8.95;3.42;;;;;;;21.73;58.17;101751.56;4954256;28;20042;-71
2022/07/13 05:17:41;;;;;;;5.65;3.10;;;;;;;21.75;58.25;101749.34;4947397;28;20035;-70
2022/07/13 05:20:07;;;;;;;5.28;3.13;;;;;;;21.81;57.92;101754.88;4935352;29;20039;-70
2022/07/13 05:22:32;;;;;;;8.93;2.90;;;;;;;21.83;57.54;101750.75;4934888;29;20058;-70
2022/07/13 05:24:59;;;;;;;3.88;2.90;;;;;;;21.85;57.50;101745.75;4935317;29;20047;-70
2022/07/13 05:27:24;;;;;;;11.07;3.03;;;;;;;21.88;57.71;101749.91;4943520;29;20035;-70
2022/07/13 05:29:50;;;;;;;6.97;3.25;;;;;;;21.90;57.45;101758.69;4954485;29;20082;-70
2022/07/13 05:32:15;;;;;;;9.40;3.10;;;;;;;21.91;57.64;101749.34;4944863;28;20372;-70
2022/07/13 05:34:41;;;;;;;12.00;3.35;;;;;;;21.90;57.72;101742.16;4939085;29;20027;-70
2022/07/13 05:37:06;;;;;;;8.85;2.88;;;;;;;21.95;56.99;101750.41;4946003;28;20118;-70
2022/07/13 05:39:31;;;;;;;7.95;3.17;;;;;;;21.97;57.00;101758.41;4952489;28;20027;-71
2022/07/13 05:41:58;;;;;;;6.03;3.00;;;;;;;21.96;56.92;101757.59;4954503;28;20510;-74
2022/07/13 05:44:23;;;;;;;5.35;3.53;;;;;;;21.98;56.83;101760.06;4953200;28;20855;-71
2022/07/13 05:46:49;;;;;;;5.65;2.90;;;;;;;21.97;57.19;101759.25;4945671;28;20114;-73
2022/07/13 05:49:14;;;;;;;6.80;3.13;;;;;;;21.95;56.83;101754.00;4935092;29;20467;-76
2022/07/13 05:51:39;;;;;;;5.03;2.83;;;;;;;21.99;56.62;101762.53;4936401;29;20031;-71
2022/07/13 05:54:05;;;;;;;7.10;3.40;;;;;;;22.00;56.78;101769.69;4954383;28;20052;-76
2022/07/13 05:56:30;;;;;;;6.53;3.08;;;;;;;22.04;56.52;101770.81;4949298;28;20024;-71
2022/07/13 05:58:56;;;;;;;11.18;2.63;;;;;;;22.06;56.97;101770.53;4951032;28;20023;-71
2022/07/13 06:01:21;;;;;;;7.82;2.90;;;;;;;22.08;57.20;101771.88;4943337;28;20026;-74
2022/07/13 06:03:46;;;;;;;8.80;3.00;;;;;;;22.13;56.74;101774.63;4934993;29;20039;-73
2022/07/13 06:06:11;;;;;;;4.33;2.80;;;;;;;22.13;57.19;101771.03;4940638;29;20032;-72
2022/07/13 06:08:38;;;;;;;4.10;2.70;;;;;;;22.13;56.68;101777.38;4952399;29;20302;-75
2022/07/13 06:11:03;;;;;;;7.35;2.97;;;;;;;22.16;56.89;101772.41;4953551;28;20514;-68
2022/07/13 06:13:28;;;;;;;6.30;2.88;;;;;;;22.17;57.20;101769.38;4952738;29;20043;-71
2022/07/13 06:15:56;;;;;;;7.07;3.10;;;;;;;22.19;57.00;101769.09;4953703;28;20030;-72
2022/07/13 06:18:22;;;;;;;8.65;2.90;;;;;;;22.20;57.45;101773.50;4947890;28;20122;-72
2022/07/13 06:20:47;;;;;;;9.25;2.97;;;;;;;22.25;57.44;101776.22;4953110;28;20111;-76
2022/07/13 06:23:14;;;;;;;7.50;2.90;;;;;;;22.24;57.16;101777.34;4952584;29;20027;-76
2022/07/13 06:25:40;;;;;;;9.05;2.92;;;;;;;22.27;58.00;101771.28;4936049;28;20287;-76
2022/07/13 06:28:06;;;;;;;6.72;3.00;;;;;;;22.27;57.46;101771.28;4940931;29;20059;-75
2022/07/13 06:30:32;;;;;;;8.18;2.92;;;;;;;22.32;57.23;101764.94;4954099;28;20648;-75
2022/07/13 06:32:58;;;;;;;5.30;3.15;;;;;;;22.34;57.34;101771.81;4948852;28;20108;-73
2022/07/13 06:35:23;;;;;;;7.63;3.17;;;;;;;22.37;57.38;101776.75;4934370;29;20040;-72
2022/07/13 06:37:49;;;;;;;12.60;3.25;;;;;;;22.40;57.50;101773.44;4940334;29;20348;-71
2022/07/13 06:40:15;;;;;;;6.35;2.72;;;;;;;22.43;57.39;101766.53;4953845;28;20063;-71
2022/07/13 06:42:40;;;;;;;6.70;3.15;;;;;;;22.45;57.79;101765.16;4952891;28;20031;-73
2022/07/13 06:45:06;;;;;;;6.13;3.20;;;;;;;22.46;57.51;101764.06;4948867;29;20038;-76
2022/07/13 06:47:31;;;;;;;11.52;3.22;;;;;;;22.51;57.42;101767.88;4937498;28;20028;-74
2022/07/13 06:49:56;;;;;;;10.02;3.80;;;;;;;22.53;57.13;101762.91;4944377;29;20035;-76
2022/07/13 06:52:22;;;;;;;11.40;3.90;;;;;;;22.54;57.69;101762.63;4954432;28;20414;-72
2022/07/13 06:54:47;;;;;;;7.03;3.17;;;;;;;22.60;57.74;101761.50;4957008;28;20042;-72
2022/07/13 06:57:12;;;;;;;7.22;3.13;;;;;;;22.76;57.45;101764.16;4946561;28;20050;-72
2022/07/13 06:59:37;;;;;;;8.57;3.20;;;;;;;22.88;57.90;101761.06;4951103;28;20039;-74
2022/07/13 07:02:03;;;;;;;9.13;3.03;;;;;;;22.90;58.01;101753.28;4935637;29;20111;-72
2022/07/13 07:04:29;;;;;;;10.90;3.25;;;;;;;22.93;57.86;101758.25;4937216;29;20039;-72
2022/07/13 07:06:55;;;;;;;10.23;3.78;;;;;;;22.93;58.23;101766.53;4937226;29;20078;-71
2022/07/13 07:09:21;;;;;;;13.68;3.50;;;;;;;22.93;58.26;101770.13;4952330;28;20020;-72
2022/07/13 07:11:46;;;;;;;9.55;3.30;;;;;;;22.95;57.99;101778.94;4942433;29;20447;-70
2022/07/13 07:14:12;;;;;;;9.18;4.45;;;;;;;22.93;58.21;101770.13;4955450;29;20035;-73
2022/07/13 07:16:37;;;;;;;8.35;3.60;;;;;;;22.91;58.62;101766.81;4952277;28;20027;-72
2022/07/13 07:19:03;;;;;;;10.23;3.92;;;;;;;22.92;58.44;101773.16;4956333;28;20555;-71
2022/07/13 07:21:29;;;;;;;9.02;3.95;;;;;;;22.93;59.00;101775.66;4956415;28;20098;-71
2022/07/13 07:23:54;;;;;;;18.80;4.60;;;;;;;23.02;58.82;101767.56;4952687;29;20052;-71
2022/07/13 07:26:20;;;;;;;8.30;4.28;;;;;;;23.17;59.21;101770.25;4959504;28;20486;-72
2022/07/13 07:28:45;;;;;;;9.75;4.50;;;;;;;23.22;58.92;101761.09;4971534;28;20039;-72
2022/07/13 07:31:10;;;;;;;11.63;4.25;;;;;;;23.28;58.91;101764.63;4964260;28;20113;-72
2022/07/13 07:33:36;;;;;;;10.68;4.65;;;;;;;23.33;59.09;101767.38;4970765;28;20030;-72
2022/07/13 07:36:01;;;;;;;7.60;4.50;;;;;;;23.36;59.60;101759.31;4955274;28;20031;-72
2022/07/13 07:38:26;;;;;;;9.23;4.68;;;;;;;23.41;59.37;101758.44;4956240;28;20035;-72
2022/07/13 07:40:52;;;;;;;11.38;5.15;;;;;;;23.44;58.53;101751.53;4952428;29;20031;-71
2022/07/13 07:43:17;;;;;;;8.15;4.70;;;;;;;23.44;58.75;101757.84;4937077;29;20131;-72
2022/07/13 07:45:43;;;;;;;10.75;4.88;;;;;;;23.40;58.67;101753.22;4953332;29;20106;-72
2022/07/13 07:48:08;;;;;;;10.38;4.85;;;;;;;23.41;59.13;101752.09;4956347;28;20078;-72
2022/07/13 07:50:33;;;;;;;9.07;4.80;;;;;;;23.42;59.43;101764.81;4955019;28;20038;-72
2022/07/13 07:52:59;;;;;;;7.50;4.75;;;;;;;23.41;59.72;101758.44;4956274;28;20035;-72
2022/07/13 07:55:24;;;;;;;11.13;5.00;;;;;;;23.48;60.08;101756.16;4941624;29;20027;-71
2022/07/13 07:57:50;;;;;;;7.65;4.00;;;;;;;23.58;60.75;101757.19;4951328;28;20413;-73
2022/07/13 08:00:16;;;;;;;17.35;5.68;;;;;;;23.60;59.91;101749.44;4953925;28;20038;-73
2022/07/13 08:02:42;;;;;;;10.23;5.13;;;;;;;23.64;60.02;101751.34;4954731;28;20450;-72
2022/07/13 08:05:08;;;;;;;13.15;5.07;;;;;;;23.68;60.16;101746.84;4949535;28;20621;-72
2022/07/13 08:07:34;;;;;;;9.90;5.32;;;;;;;23.77;59.72;101749.81;4936349;29;20063;-72
2022/07/13 08:09:59;;;;;;;13.27;5.18;;;;;;;23.85;59.61;101756.66;4936773;29;20459;-72
2022/07/13 08:12:24;;;;;;;13.00;5.28;;;;;;;23.95;60.15;101752.97;4946407;28;20105;-72
2022/07/13 08:14:50;;;;;;;8.85;4.60;;;;;;;24.00;61.56;101759.25;4964974;28;20045;-74
2022/07/13 08:17:15;;;;;;;8.65;5.28;;;;;;;23.94;60.09;101760.41;4946399;28;20046;-74
2022/07/13 08:19:40;;;;;;;13.30;5.40;;;;;;;23.93;60.26;101757.94;4950143;29;20379;-74
2022/07/13 08:22:06;;;;;;;14.02;5.97;;;;;;;23.97;60.18;101759.03;4953310;29;20460;-73
2022/07/13 08:24:31;;;;;;;6.63;4.97;;;;;;;23.97;60.51;101761.78;4967198;28;20029;-74
2022/07/13 08:26:57;;;;;;;11.25;5.82;;;;;;;24.04;60.58;101770.56;4956447;28;20043;-74
2022/07/13 08:29:22;;;;;;;10.20;5.07;;;;;;;24.10;61.29;101769.38;4957203;28;20031;-73
2022/07/13 08:31:47;;;;;;;16.48;5.47;;;;;;;24.18;61.80;101774.25;4948325;29;20029;-74
2022/07/13 08:39:40;;;;;;;11.40;4.50;;;;;;;24.30;61.77;101773.81;4936184;29;20042;-72
2022/07/13 08:42:07;;;;;;;11.10;4.80;;;;;;;24.40;61.70;101768.16;4936380;29;20023;-72
2022/07/13 08:44:32;;;;;;;9.13;4.30;;;;;;;24.44;60.90;101776.69;4939513;29;20512;-73
2022/07/13 08:46:59;;;;;;;9.55;4.93;;;;;;;24.47;59.89;101765.03;4953754;28;20062;-72
2022/07/13 08:49:26;;;;;;;9.65;4.28;;;;;;;24.54;59.65;101773.78;4954565;28;20077;-71
2022/07/13 08:51:51;;;;;;;10.02;4.00;;;;;;;24.59;60.01;101776.53;4954995;28;20038;-72
2022/07/13 08:54:17;;;;;;;10.85;4.13;;;;;;;24.61;58.89;101769.84;4952147;28;21347;-72
2022/07/13 08:56:42;;;;;;;11.35;4.20;;;;;;;24.59;58.94;101770.16;4952320;29;20049;-72
2022/07/13 08:59:08;;;;;;;9.90;4.82;;;;;;;24.59;59.36;101772.94;4955095;29;20050;-71
2022/07/13 09:01:33;;;;;;;10.48;4.30;;;;;;;24.64;58.92;101778.41;4952312;29;20371;-71
2022/07/13 09:03:59;;;;;;;6.13;3.60;;;;;;;24.67;58.40;101782.50;4949724;28;20366;-72
2022/07/13 09:06:44;;;;;;;9.80;4.00;;;;;;;24.68;58.17;101773.09;4952849;28;20031;-71
2022/07/13 09:09:38;;;;;;;10.02;4.68;;;;;;;24.70;58.19;101782.75;4935326;29;20118;-72
2022/07/13 09:12:16;;;;;;;11.70;3.80;;;;;;;24.75;58.30;101790.16;4935068;29;20023;-73
2022/07/13 09:15:02;;;;;;;8.20;3.35;;;;;;;24.84;59.00;101782.81;4940209;29;20038;-73
2022/07/13 09:17:45;;;;;;;7.90;3.65;;;;;;;24.90;59.13;101776.06;4953517;28;20038;-73
2022/07/13 09:20:10;;;;;;;4.88;3.50;;;;;;;25.01;57.78;101785.06;4954753;28;20054;-74
2022/07/13 09:22:45;;;;;;;7.10;3.40;;;;;;;24.99;58.02;101786.50;4954310;29;20023;-75
2022/07/13 09:25:14;;;;;;;8.73;3.40;;;;;;;25.01;57.90;101795.31;4952790;28;20027;-73
2022/07/13 09:27:50;;;;;;;3.78;3.17;;;;;;;25.02;57.58;101788.66;4954140;28;20396;-73
2022/07/13 09:30:26;;;;;;;7.93;3.55;;;;;;;24.98;57.69;101790.38;4954578;28;20062;-74
2022/07/13 09:32:56;;;;;;;8.05;4.20;;;;;;;24.99;57.76;101786.50;4954287;28;20031;-74
2022/07/13 09:35:48;;;;;;;6.47;3.73;;;;;;;25.00;57.52;101796.44;4950777;28;20090;-73
2022/07/13 09:38:36;;;;;;;6.95;3.25;;;;;;;25.02;58.57;101799.75;4973893;28;20050;-74
2022/07/13 09:41:13;;;;;;;9.75;3.40;;;;;;;25.07;59.00;101797.69;4973868;28;20023;-73
2022/07/13 09:46:36;;;;;;;5.40;2.90;;;;;;;25.02;55.09;101783.13;4953089;29;20050;-75
2022/07/13 09:49:01;;;;;;;5.68;2.80;;;;;;;25.00;54.04;101785.34;4954483;28;20023;-73
2022/07/13 09:51:27;;;;;;;7.30;2.25;;;;;;;24.99;52.39;101786.50;4953944;29;20121;-73
2022/07/13 09:53:57;;;;;;;6.05;2.67;;;;;;;24.99;53.01;101792.03;4954460;28;20031;-73
2022/07/13 09:56:24;;;;;;;7.88;2.60;;;;;;;24.98;53.69;101801.44;4938352;28;20039;-75
2022/07/13 09:58:51;;;;;;;3.92;2.55;;;;;;;24.95;54.16;101789.84;4935239;29;20039;-74
2022/07/13 10:01:16;;;;;;;8.90;2.97;;;;;;;25.01;54.16;101798.09;4932956;29;20106;-73
2022/07/13 10:03:43;;;;;;;18.17;3.63;;;;;;;25.09;55.32;101801.00;4966113;28;20459;-73
2022/07/13 10:06:08;;;;;;;3.53;2.90;;;;;;;25.13;55.10;101799.25;4940781;28;20027;-73
2022/07/13 10:08:34;;;;;;;6.90;2.60;;;;;;;25.11;54.81;101804.28;4934918;29;20513;-73
2022/07/13 10:10:59;;;;;;;5.72;3.17;;;;;;;25.16;55.91;101800.59;4935235;29;20031;-77
2022/07/13 10:13:24;;;;;;;10.30;3.03;;;;;;;25.20;55.71;101796.13;4935082;29;20438;-73
2022/07/13 10:15:49;;;;;;;7.27;3.20;;;;;;;25.22;55.12;101795.81;4934814;29;20273;-76
2022/07/13 10:18:24;;;;;;;6.85;2.80;;;;;;;25.21;54.58;101808.00;4934776;29;20276;-73
2022/07/13 10:20:55;;;;;;;6.20;2.80;;;;;;;25.22;54.50;101816.03;4941946;29;20534;-76
2022/07/13 10:23:36;;;;;;;4.25;2.30;;;;;;;25.21;52.04;101814.41;4968307;28;20481;-77
2022/07/13 10:26:01;;;;;;;5.97;2.75;;;;;;;25.18;51.75;101808.63;4963451;28;20066;-76
2022/07/13 10:28:27;;;;;;;6.65;2.30;;;;;;;25.20;52.87;101814.66;4953877;29;20051;-74
2022/07/13 10:30:53;;;;;;;6.25;2.33;;;;;;;25.21;52.40;101814.41;4961111;28;20110;-74
2022/07/13 10:33:20;;;;;;;7.63;2.42;;;;;;;25.19;52.19;101816.63;4977277;28;20416;-72
2022/07/13 10:35:49;;;;;;;7.35;2.40;;;;;;;25.25;52.95;101814.59;4976597;28;20058;-76
2022/07/13 10:38:16;;;;;;;5.72;2.42;;;;;;;25.24;52.44;101822.09;4976908;28;20029;-75
2022/07/13 10:40:42;;;;;;;4.25;2.50;;;;;;;25.24;53.02;101812.94;4963112;28;20928;-77
2022/07/13 10:43:15;;;;;;;4.13;2.20;;;;;;;25.27;52.80;101813.19;4965996;28;20027;-74
2022/07/13 10:45:45;;;;;;;10.43;2.63;;;;;;;25.33;53.63;101815.88;4938019;29;20114;-76
2022/07/13 10:48:18;;;;;;;4.13;2.40;;;;;;;25.37;52.45;101816.94;4936897;29;20543;-75
2022/07/13 10:50:44;;;;;;;7.32;2.63;;;;;;;25.40;51.77;101817.16;4945269;28;20074;-76
2022/07/13 10:53:09;;;;;;;8.48;2.40;;;;;;;25.47;51.42;101819.53;4941463;28;20051;-74
2022/07/13 10:55:35;;;;;;;4.82;2.60;;;;;;;25.61;52.36;101819.59;4937630;29;20024;-73
2022/07/13 10:58:31;;;;;;;5.60;2.42;;;;;;;25.78;51.88;101827.31;4937991;29;20039;-76
2022/07/13 11:01:00;;;;;;;4.00;2.47;;;;;;;25.71;51.95;101824.09;4935360;28;20043;-73
2022/07/13 11:03:43;;;;;;;14.48;2.78;;;;;;;25.65;51.30;101832.53;4937316;29;20107;-75
2022/07/13 11:06:15;;;;;;;4.63;2.38;;;;;;;25.61;52.04;101827.91;4937542;29;20051;-73
2022/07/13 11:08:41;;;;;;;9.70;2.90;;;;;;;25.56;52.59;101828.81;4937608;29;20085;-75
2022/07/13 11:11:16;;;;;;;6.25;2.47;;;;;;;25.55;52.57;101829.94;4944770;29;20451;-75
2022/07/13 11:13:46;;;;;;;12.00;3.10;;;;;;;25.52;56.23;101827.75;4956281;29;20041;-73
2022/07/13 11:16:13;;;;;;;;;;;;;;;25.57;54.89;101827.66;4975750;28;20031;-75
2022/07/13 11:18:40;;;;;;;5.10;2.55;;;;;;;25.45;53.94;101819.84;4975632;28;20452;-75
2022/07/13 11:21:18;;;;;;;7.18;2.70;;;;;;;25.50;55.02;101827.25;4966718;28;20035;-75
2022/07/13 11:26:51;;;;;;;5.50;2.50;;;;;;;25.62;53.99;101824.81;4956208;29;20046;-76
2022/07/13 11:29:29;;;;;;;4.05;2.67;;;;;;;25.82;53.82;101822.81;4956615;28;20019;-75
2022/07/13 11:31:59;;;;;;;4.82;2.30;;;;;;;25.89;51.58;101812.16;4955434;29;20475;-74
2022/07/13 11:34:29;;;;;;;5.77;2.30;;;;;;;25.93;49.98;101821.47;4953143;28;20031;-77